Time;durP1;ratioP1;P1;durP2;ratioP2;P2;SDS_P1;SDS_P2;PMS_P1;PMS_P2;Temp;Humidity;BMP_temperature;BMP_pressure;BME280_temperature;BME280_humidity;BME280_pressure;Samples;Min_cycle;Max_cycle;Signal;HPM_P1;HPM_P2
2023/07/20 00:00:04;;;;;;;11.97;7.10;;;;;;;21.90;85.77;99994.63;5072570;28;20343;-59
2023/07/20 00:02:52;;;;;;;13.18;7.38;;;;;;;22.06;85.46;99998.91;5067581;28;20273;-59
2023/07/20 00:05:26;;;;;;;17.60;6.43;;;;;;;22.18;84.45;100001.56;5085471;28;20063;-57
2023/07/20 00:07:57;;;;;;;13.30;7.17;;;;;;;22.27;83.77;100004.59;5068518;28;20438;-59
2023/07/20 00:10:27;;;;;;;14.40;6.70;;;;;;;22.29;82.43;99998.22;5078985;28;20480;-59
2023/07/20 00:12:58;;;;;;;13.73;6.07;;;;;;;22.34;83.18;100001.41;5067978;28;20967;-59
2023/07/20 00:15:30;;;;;;;10.10;6.70;;;;;;;22.52;82.91;99995.75;5084730;28;20083;-58
2023/07/20 00:18:00;;;;;;;11.30;6.97;;;;;;;22.64;81.92;100002.88;5074404;28;20448;-61
2023/07/20 00:20:31;;;;;;;10.73;6.60;;;;;;;22.69;81.38;100000.75;5082045;28;20506;-59
2023/07/20 00:23:02;;;;;;;14.97;6.17;;;;;;;22.77;81.36;100006.38;5054254;28;20202;-63
2023/07/20 00:25:33;;;;;;;20.57;6.67;;;;;;;22.92;81.73;100003.56;5064455;28;20367;-60
2023/07/20 00:28:03;;;;;;;14.37;6.93;;;;;;;23.04;80.63;100008.06;5061468;28;20059;-61
2023/07/20 00:30:36;;;;;;;15.33;6.73;;;;;;;23.14;80.68;100016.19;5099608;28;20105;-61
2023/07/20 00:33:06;;;;;;;13.87;7.27;;;;;;;23.20;78.75;100005.94;5074244;28;20051;-60
2023/07/20 00:35:37;;;;;;;16.40;6.17;;;;;;;23.30;79.00;100000.81;5084160;28;20374;-59
2023/07/20 00:38:08;;;;;;;15.63;6.67;;;;;;;23.36;78.68;100000.34;5067810;28;20044;-62
2023/07/20 00:40:39;;;;;;;16.07;6.93;;;;;;;23.46;78.20;99989.84;5073412;28;20416;-58
2023/07/20 00:43:09;;;;;;;13.53;7.07;;;;;;;23.57;77.48;99994.41;5061513;28;20055;-59
2023/07/20 00:45:42;;;;;;;14.73;7.07;;;;;;;23.59;77.06;99995.97;5084470;28;20040;-62
2023/07/20 00:48:14;;;;;;;15.83;6.60;;;;;;;23.67;76.81;99988.25;5074010;28;20051;-61
2023/07/20 00:50:45;;;;;;;12.93;6.43;;;;;;;23.81;76.55;99989.03;5069543;28;20096;-60
2023/07/20 00:53:16;;;;;;;11.90;6.30;;;;;;;23.80;76.33;99982.00;5079730;28;20447;-59
2023/07/20 00:55:47;;;;;;;19.43;6.60;;;;;;;23.85;76.36;99982.50;5074053;28;20138;-58
2023/07/20 00:58:18;;;;;;;14.60;5.87;;;;;;;23.95;76.72;99988.00;5084175;28;20548;-59
2023/07/20 01:00:50;;;;;;;17.20;5.70;;;;;;;24.19;76.80;99993.25;5072363;28;20523;-59
2023/07/20 01:03:21;;;;;;;18.43;7.03;;;;;;;24.33;75.29;99990.38;5085135;28;20120;-58
2023/07/20 01:05:56;;;;;;;19.13;6.37;;;;;;;24.40;74.06;99994.25;5074527;28;20063;-59
2023/07/20 01:08:35;;;;;;;11.90;5.63;;;;;;;24.44;73.68;99987.72;5084490;28;20416;-60
2023/07/20 01:11:12;;;;;;;12.13;5.60;;;;;;;24.51;75.10;99983.63;5071890;28;20043;-60
2023/07/20 01:13:43;;;;;;;11.53;5.50;;;;;;;24.64;74.35;99985.31;5073815;28;20134;-59
2023/07/20 01:16:15;;;;;;;11.20;5.40;;;;;;;24.43;74.18;99979.81;5084418;28;20126;-58
2023/07/20 01:18:45;;;;;;;14.27;6.00;;;;;;;24.32;74.59;99984.19;5074748;28;20626;-58
2023/07/20 01:21:35;;;;;;;14.53;5.87;;;;;;;24.30;74.46;100001.28;5082752;28;20477;-61
2023/07/20 01:24:46;;;;;;;13.53;5.77;;;;;;;24.47;75.90;99998.19;5073463;28;20063;-59
2023/07/20 01:27:53;;;;;;;16.43;6.43;;;;;;;24.74;74.81;99999.66;5083941;28;20051;-59
2023/07/20 01:30:48;;;;;;;13.40;5.40;;;;;;;24.97;74.47;99995.97;5075813;28;20077;-60
2023/07/20 01:33:21;;;;;;;11.20;5.40;;;;;;;25.16;74.01;100000.72;5065390;28;20067;-58
2023/07/20 01:35:56;;;;;;;17.83;6.37;;;;;;;25.13;74.08;99984.03;5066004;28;20051;-58
2023/07/20 01:38:27;;;;;;;14.03;6.20;;;;;;;25.24;72.97;100000.09;5073133;28;20035;-61
2023/07/20 01:40:59;;;;;;;19.83;6.80;;;;;;;25.36;72.22;99995.53;5061800;28;20138;-61
2023/07/20 01:43:30;;;;;;;14.53;6.30;;;;;;;25.44;72.59;100002.94;5084318;28;20063;-58
2023/07/20 01:46:00;;;;;;;15.20;6.17;;;;;;;25.49;71.77;99995.38;5063446;28;20065;-59
2023/07/20 01:48:33;;;;;;;13.87;5.43;;;;;;;25.39;72.18;99990.78;5069335;28;20105;-58
2023/07/20 01:51:03;;;;;;;13.03;6.00;;;;;;;25.43;72.68;99995.88;5076892;28;20055;-60
2023/07/20 01:53:34;;;;;;;18.80;5.50;;;;;;;25.34;72.14;99992.16;5086849;28;20442;-60
2023/07/20 01:56:04;;;;;;;13.40;4.87;;;;;;;25.33;73.24;99993.97;5077453;28;20047;-62
2023/07/20 01:58:35;;;;;;;11.67;5.50;;;;;;;25.56;73.10;100001.91;5087286;28;20131;-60
2023/07/20 02:01:06;;;;;;;10.37;5.20;;;;;;;25.75;72.20;99980.66;5077588;28;20100;-61
2023/07/20 02:03:38;;;;;;;18.77;5.23;;;;;;;26.04;71.56;99985.41;5087890;28;20123;-61
2023/07/20 02:06:09;;;;;;;18.27;5.03;;;;;;;26.14;70.26;99986.31;5069096;28;20527;-61
2023/07/20 02:08:39;;;;;;;17.40;4.90;;;;;;;26.12;69.47;99985.59;5077998;28;20462;-59
2023/07/20 02:11:10;;;;;;;19.43;4.77;;;;;;;26.19;69.56;99984.09;5063776;28;20467;-61
2023/07/20 02:13:40;;;;;;;16.07;4.13;;;;;;;26.37;69.30;99975.44;5074990;28;20087;-60
2023/07/20 02:16:11;;;;;;;16.53;4.53;;;;;;;26.66;68.59;99980.97;5079723;28;20054;-58
2023/07/20 02:18:43;;;;;;;13.30;4.07;;;;;;;26.74;67.39;99961.53;5067278;28;20131;-60
2023/07/20 02:21:14;;;;;;;14.83;3.73;;;;;;;26.61;67.36;99973.34;5075176;28;20499;-59
2023/07/20 02:23:44;;;;;;;7.07;3.60;;;;;;;26.27;67.48;99967.34;5064988;28;20532;-59
2023/07/20 02:26:15;;;;;;;13.47;3.90;;;;;;;25.98;68.66;99961.81;5078610;28;20043;-58
2023/07/20 02:28:45;;;;;;;10.13;3.77;;;;;;;25.78;68.26;99961.66;5064666;28;20048;-60
2023/07/20 02:31:16;;;;;;;14.20;4.13;;;;;;;25.66;70.36;99976.09;5077606;28;20056;-61
2023/07/20 02:33:48;;;;;;;23.87;4.00;;;;;;;25.48;69.80;99972.28;5068759;28;20075;-60
2023/07/20 02:36:18;;;;;;;9.90;3.53;;;;;;;25.30;70.83;99964.81;5076874;28;20044;-61
2023/07/20 02:38:49;;;;;;;13.13;3.63;;;;;;;25.29;72.24;99968.47;5068253;28;20054;-61
2023/07/20 02:41:21;;;;;;;11.30;3.90;;;;;;;25.20;71.89;99971.88;5078371;28;20035;-60
2023/07/20 02:43:51;;;;;;;8.10;3.77;;;;;;;25.13;72.66;99957.28;5074457;28;20134;-61
2023/07/20 02:46:21;;;;;;;7.40;3.87;;;;;;;25.03;72.69;99961.69;5083101;28;20044;-60
2023/07/20 02:48:54;;;;;;;15.47;4.00;;;;;;;25.00;73.69;99956.59;5067279;28;20054;-60
2023/07/20 02:51:25;;;;;;;14.53;3.97;;;;;;;24.96;74.13;99945.28;5083766;28;20047;-62
2023/07/20 02:53:55;;;;;;;17.03;4.17;;;;;;;24.91;74.18;99953.72;5075877;28;20511;-57
2023/07/20 02:56:26;;;;;;;15.33;3.87;;;;;;;24.84;73.26;99938.31;5086264;28;20362;-57
2023/07/20 02:58:57;;;;;;;8.40;3.60;;;;;;;24.82;73.06;99938.41;5075906;28;20317;-60
2023/07/20 03:01:29;;;;;;;11.33;3.73;;;;;;;24.76;73.76;99944.25;5086438;28;20040;-60
2023/07/20 03:04:01;;;;;;;14.47;3.90;;;;;;;24.60;74.09;99938.44;5076373;28;20056;-61
2023/07/20 03:06:35;;;;;;;10.93;4.00;;;;;;;24.47;74.46;99944.75;5096762;28;20462;-59
2023/07/20 03:09:06;;;;;;;14.03;3.77;;;;;;;24.43;74.23;99943.25;5074914;28;20035;-59
2023/07/20 03:11:37;;;;;;;11.93;3.60;;;;;;;24.45;73.72;99954.72;5082506;28;20402;-62
2023/07/20 03:14:08;;;;;;;6.97;3.53;;;;;;;24.67;74.56;99947.69;5083708;28;20044;-62
2023/07/20 03:16:38;;;;;;;16.63;4.03;;;;;;;24.97;74.71;99953.19;5094181;28;20075;-61
2023/07/20 03:19:11;;;;;;;23.30;3.50;;;;;;;25.12;72.69;99955.59;5083318;28;20046;-62
2023/07/20 03:21:42;;;;;;;13.30;3.47;;;;;;;25.23;71.81;99952.91;5104902;28;20043;-62
2023/07/20 03:24:12;;;;;;;9.37;3.30;;;;;;;25.36;71.76;99953.63;5115333;28;20043;-59
2023/07/20 03:26:43;;;;;;;11.83;3.57;;;;;;;25.33;70.25;99948.50;5113175;28;20415;-62
2023/07/20 03:29:13;;;;;;;11.50;3.40;;;;;;;25.35;70.11;99951.91;5111541;28;20530;-60
2023/07/20 03:31:44;;;;;;;5.83;2.60;;;;;;;25.36;70.13;99956.28;5081698;28;20126;-58
2023/07/20 03:34:16;;;;;;;9.70;2.90;;;;;;;25.43;70.55;99953.09;5094394;28;20104;-60
2023/07/20 03:36:47;;;;;;;3.53;2.23;;;;;;;25.50;70.35;99954.28;5075727;28;20039;-60
2023/07/20 03:39:17;;;;;;;7.73;3.10;;;;;;;25.51;71.04;99961.31;5104729;28;20039;-61
2023/07/20 03:41:48;;;;;;;10.17;2.70;;;;;;;25.49;69.61;99958.78;5100200;28;20035;-61
2023/07/20 03:44:18;;;;;;;10.10;2.70;;;;;;;25.37;70.54;99955.28;5073487;28;20502;-60
2023/07/20 03:46:49;;;;;;;16.90;2.73;;;;;;;25.36;70.77;99963.44;5070008;28;20050;-58
2023/07/20 03:49:21;;;;;;;13.03;2.93;;;;;;;25.51;70.74;99961.31;5085040;28;20054;-60
2023/07/20 03:51:51;;;;;;;10.13;2.73;;;;;;;25.74;70.54;99952.22;5067741;28;20058;-60
2023/07/20 03:54:22;;;;;;;7.77;2.50;;;;;;;25.85;70.08;99945.09;5089671;28;20039;-63
2023/07/20 03:56:52;;;;;;;7.10;2.43;;;;;;;25.98;70.38;99943.09;5081065;28;20138;-62
2023/07/20 03:59:23;;;;;;;11.00;2.80;;;;;;;25.97;68.86;99941.41;5082488;28;20470;-61
2023/07/20 04:01:53;;;;;;;8.27;2.60;;;;;;;25.98;69.54;99937.72;5070601;28;20098;-58
2023/07/20 04:04:25;;;;;;;14.93;3.43;;;;;;;25.91;70.49;99937.44;5076811;28;20043;-61
2023/07/20 04:06:56;;;;;;;9.50;2.70;;;;;;;26.00;69.80;99927.75;5066169;28;20463;-60
2023/07/20 04:09:26;;;;;;;10.43;2.80;;;;;;;26.06;69.68;99924.56;5073934;28;20719;-57
2023/07/20 04:11:57;;;;;;;8.97;2.70;;;;;;;26.15;69.36;99918.38;5074907;28;20367;-60
2023/07/20 04:14:27;;;;;;;12.73;3.30;;;;;;;26.16;69.76;99919.22;5075532;28;20070;-60
2023/07/20 04:16:57;;;;;;;11.47;3.43;;;;;;;26.28;69.39;99926.19;5064558;28;20128;-57
2023/07/20 04:19:30;;;;;;;7.93;3.30;;;;;;;26.28;68.54;99917.31;5064239;28;20688;-64
2023/07/20 04:22:02;;;;;;;17.87;3.40;;;;;;;26.33;68.87;99921.28;5056158;28;20485;-64
2023/07/20 04:24:32;;;;;;;13.60;3.63;;;;;;;26.15;69.00;99891.59;5071944;28;20677;-63
2023/07/20 04:27:03;;;;;;;12.53;2.80;;;;;;;26.37;69.24;99924.56;5061980;28;20458;-61
2023/07/20 04:29:33;;;;;;;13.63;3.23;;;;;;;26.39;68.89;99919.91;5071899;28;20491;-65
2023/07/20 04:32:04;;;;;;;7.87;3.00;;;;;;;26.32;67.22;99908.88;5060180;28;20458;-62
2023/07/20 04:34:37;;;;;;;10.37;3.10;;;;;;;26.15;67.19;99907.66;5071135;28;20097;-64
2023/07/20 04:37:07;;;;;;;16.43;3.10;;;;;;;26.18;68.85;99912.75;5059744;28;20051;-61
2023/07/20 04:39:37;;;;;;;11.43;2.93;;;;;;;26.26;68.18;99914.78;5071656;28;20142;-65
2023/07/20 04:42:08;;;;;;;10.53;3.40;;;;;;;26.31;67.71;99917.03;5058857;28;20054;-64
2023/07/20 04:44:39;;;;;;;11.30;3.67;;;;;;;26.45;67.92;99927.41;5070557;28;20182;-63
2023/07/20 04:47:10;;;;;;;11.70;3.30;;;;;;;26.47;67.98;99922.75;5058193;28;20122;-61
2023/07/20 04:49:41;;;;;;;13.53;3.10;;;;;;;26.60;68.96;99923.38;5067283;28;20123;-61
2023/07/20 04:52:12;;;;;;;15.70;3.47;;;;;;;26.58;67.32;99925.34;5071018;28;20614;-63
2023/07/20 04:54:42;;;;;;;13.87;3.47;;;;;;;26.63;68.18;99932.97;5060089;28;20129;-63
2023/07/20 04:57:14;;;;;;;15.23;3.00;;;;;;;26.68;66.92;99936.97;5070827;28;20052;-65
2023/07/20 04:59:44;;;;;;;16.37;3.47;;;;;;;26.58;66.25;99946.78;5059340;28;20174;-65
2023/07/20 05:02:15;;;;;;;11.20;3.40;;;;;;;26.53;67.01;99949.03;5071407;28;20574;-64
2023/07/20 05:04:47;;;;;;;11.20;3.60;;;;;;;26.43;67.03;99948.09;5059343;28;20083;-64
2023/07/20 05:07:18;;;;;;;16.17;3.97;;;;;;;26.42;67.17;99946.44;5069539;28;20552;-65
2023/07/20 05:09:49;;;;;;;18.80;3.97;;;;;;;26.33;67.24;99936.50;5059957;28;20160;-64
2023/07/20 05:12:21;;;;;;;10.90;3.13;;;;;;;26.11;67.36;99943.75;5070179;28;20058;-62
2023/07/20 05:15:10;;;;;;;12.20;3.50;;;;;;;25.83;67.40;99940.75;5059485;28;20059;-63
2023/07/20 05:17:55;;;;;;;10.73;3.73;;;;;;;25.76;67.91;99950.25;5059111;28;20060;-65
2023/07/20 05:20:34;;;;;;;11.07;3.13;;;;;;;25.86;69.11;99922.72;5068657;28;20099;-62
2023/07/20 05:23:05;;;;;;;11.13;3.50;;;;;;;26.09;68.53;99935.00;5061968;28;20066;-62
2023/07/20 05:25:36;;;;;;;13.57;3.57;;;;;;;26.08;68.02;99933.28;5073059;28;20065;-63
2023/07/20 05:28:07;;;;;;;15.60;3.77;;;;;;;26.13;67.99;99932.88;5063226;28;20062;-63
2023/07/20 05:30:37;;;;;;;11.17;3.53;;;;;;;26.15;67.01;99928.25;5073254;28;20048;-63
2023/07/20 05:33:08;;;;;;;10.17;3.80;;;;;;;26.02;67.30;99939.19;5063346;28;20047;-66
2023/07/20 05:35:40;;;;;;;17.53;3.73;;;;;;;25.74;67.06;99930.81;5073540;28;20061;-62
2023/07/20 05:38:10;;;;;;;14.50;3.80;;;;;;;25.45;68.14;99924.38;5062572;28;20048;-63
2023/07/20 05:40:43;;;;;;;14.40;4.10;;;;;;;25.31;69.07;99939.78;5068366;28;20063;-63
2023/07/20 05:43:13;;;;;;;10.37;3.87;;;;;;;25.01;69.49;99904.84;5074031;28;20067;-62
2023/07/20 05:45:47;;;;;;;11.03;3.57;;;;;;;24.96;70.00;99929.25;5063545;28;20066;-64
2023/07/20 05:48:18;;;;;;;9.70;3.70;;;;;;;24.94;70.87;99925.88;5074130;28;20109;-65
2023/07/20 05:50:50;;;;;;;10.00;3.83;;;;;;;24.96;70.37;99929.25;5063698;28;20097;-58
2023/07/20 05:53:20;;;;;;;12.77;4.17;;;;;;;25.09;70.83;99932.66;5073488;28;20097;-65
2023/07/20 05:55:54;;;;;;;20.03;4.83;;;;;;;25.37;69.80;99933.06;5064442;28;20227;-63
2023/07/20 05:58:25;;;;;;;13.47;3.70;;;;;;;25.36;68.43;99942.91;5073211;28;20140;-64
2023/07/20 06:00:56;;;;;;;12.10;3.53;;;;;;;25.24;68.90;99938.59;5063797;28;20101;-60
2023/07/20 06:03:26;;;;;;;8.43;3.83;;;;;;;25.43;69.13;99942.38;5073432;28;20101;-58
2023/07/20 06:06:03;;;;;;;14.43;5.03;;;;;;;25.36;68.17;99936.69;5063275;28;20055;-65
2023/07/20 06:08:34;;;;;;;13.87;3.63;;;;;;;25.28;68.00;99928.47;5074876;28;20054;-64
2023/07/20 06:11:05;;;;;;;7.60;3.83;;;;;;;25.22;67.97;99935.19;5062162;28;20048;-67
2023/07/20 06:13:35;;;;;;;7.60;3.83;;;;;;;25.12;68.31;99944.91;5073051;28;20101;-65
2023/07/20 06:16:06;;;;;;;13.73;3.90;;;;;;;24.98;68.91;99949.53;5062897;28;20101;-63
2023/07/20 06:18:37;;;;;;;13.13;3.87;;;;;;;24.92;69.09;99944.72;5071465;28;20047;-64
2023/07/20 06:21:09;;;;;;;12.43;4.10;;;;;;;24.90;69.38;99952.00;5062040;28;20040;-67
2023/07/20 06:23:40;;;;;;;13.57;3.23;;;;;;;24.74;69.98;99939.03;5073177;28;20097;-65
2023/07/20 06:26:10;;;;;;;8.50;3.00;;;;;;;24.64;70.72;99945.25;5063379;28;20048;-65
2023/07/20 06:28:40;;;;;;;11.40;3.07;;;;;;;24.49;70.71;99948.19;5071704;28;20138;-65
2023/07/20 06:31:11;;;;;;;12.47;3.10;;;;;;;24.38;70.99;99955.28;5073575;28;20036;-61
2023/07/20 06:33:42;;;;;;;14.87;3.60;;;;;;;24.26;71.39;99954.44;5063121;28;20032;-65
2023/07/20 06:36:14;;;;;;;9.77;3.47;;;;;;;24.23;71.99;99952.00;5072113;28;20070;-64
2023/07/20 06:38:44;;;;;;;16.30;2.67;;;;;;;24.16;72.79;99956.13;5061874;28;20169;-65
2023/07/20 06:41:35;;;;;;;10.23;2.90;;;;;;;24.05;72.37;99959.63;5071131;28;20062;-66
2023/07/20 06:44:08;;;;;;;15.77;3.17;;;;;;;23.88;71.80;99958.25;5062151;28;20036;-65
2023/07/20 06:46:39;;;;;;;13.40;3.60;;;;;;;23.73;72.22;99959.44;5071834;28;20075;-61
2023/07/20 06:49:09;;;;;;;20.50;3.23;;;;;;;23.72;72.71;99963.06;5061833;28;20044;-64
2023/07/20 06:51:44;;;;;;;9.40;2.70;;;;;;;23.72;73.21;99965.72;5062721;28;20040;-64
2023/07/20 06:54:14;;;;;;;16.30;2.60;;;;;;;23.81;72.74;99951.69;5072067;28;20540;-65
2023/07/20 06:56:52;;;;;;;10.03;2.60;;;;;;;23.96;72.40;99955.84;5061191;28;20352;-64
2023/07/20 06:59:26;;;;;;;10.77;2.33;;;;;;;24.07;72.53;99947.88;5072508;28;20051;-65
2023/07/20 07:01:56;;;;;;;11.10;2.20;;;;;;;24.25;72.53;99950.06;5061114;28;20044;-62
2023/07/20 07:04:27;;;;;;;11.77;2.10;;;;;;;24.28;71.29;99944.47;5072217;28;20432;-67
2023/07/20 07:06:59;;;;;;;8.83;2.30;;;;;;;24.07;70.85;99947.88;5062259;28;20051;-65
2023/07/20 07:09:30;;;;;;;9.10;1.93;;;;;;;23.89;71.86;99950.16;5071432;28;20075;-61
2023/07/20 07:12:00;;;;;;;15.50;2.70;;;;;;;23.83;72.11;99939.09;5061214;28;20168;-64
2023/07/20 07:14:32;;;;;;;12.07;2.13;;;;;;;23.88;71.98;99952.91;5071072;28;20047;-66
2023/07/20 07:17:02;;;;;;;11.73;2.50;;;;;;;23.66;71.64;99949.22;5061520;28;20047;-65
2023/07/20 07:19:34;;;;;;;12.17;3.07;;;;;;;23.52;72.40;99962.72;5072313;28;20058;-65
2023/07/20 07:22:07;;;;;;;11.27;1.97;;;;;;;23.54;72.20;99966.13;5060766;28;20031;-61
2023/07/20 07:24:37;;;;;;;9.87;2.53;;;;;;;23.52;72.76;99961.88;5072220;28;20055;-64
2023/07/20 07:27:08;;;;;;;9.67;2.33;;;;;;;23.53;72.51;99956.41;5060752;28;20435;-65
2023/07/20 07:29:39;;;;;;;8.83;1.93;;;;;;;23.56;72.40;99964.19;5071606;28;20059;-65
2023/07/20 07:32:10;;;;;;;12.27;2.40;;;;;;;23.57;72.58;99965.91;5060553;28;20138;-68
2023/07/20 07:34:40;;;;;;;12.03;2.10;;;;;;;23.58;71.85;99967.59;5065729;28;20067;-62
2023/07/20 07:37:13;;;;;;;10.23;2.53;;;;;;;23.52;71.36;99968.06;5073510;28;20036;-63
2023/07/20 07:39:43;;;;;;;14.07;2.30;;;;;;;23.30;71.52;99954.63;5059942;28;20043;-66
2023/07/20 07:42:14;;;;;;;6.27;1.90;;;;;;;23.33;71.89;99978.41;5071571;28;20381;-66
2023/07/20 07:44:44;;;;;;;8.07;2.30;;;;;;;23.35;72.52;99968.47;5060526;28;20367;-65
2023/07/20 07:47:15;;;;;;;23.23;2.23;;;;;;;23.30;72.13;99962.63;5069742;28;20063;-64
2023/07/20 07:49:45;;;;;;;8.50;2.17;;;;;;;23.15;71.99;99981.44;5060113;28;20062;-66
2023/07/20 07:52:18;;;;;;;11.73;3.00;;;;;;;23.03;72.91;99977.88;5070752;28;20047;-64
2023/07/20 07:54:48;;;;;;;10.43;2.20;;;;;;;23.01;73.16;99978.94;5060971;28;20039;-65
2023/07/20 07:57:20;;;;;;;5.77;2.27;;;;;;;22.63;72.79;99953.22;5070942;28;20450;-63
2023/07/20 07:59:50;;;;;;;4.70;2.50;;;;;;;22.62;73.08;99983.50;5060827;28;20055;-66
2023/07/20 08:02:21;;;;;;;8.47;2.33;;;;;;;22.40;73.88;99985.00;5071255;28;20060;-62
2023/07/20 08:04:52;;;;;;;12.43;2.43;;;;;;;22.18;74.88;99984.75;5061709;28;20576;-63
2023/07/20 08:07:24;;;;;;;5.60;2.60;;;;;;;22.05;75.78;99989.22;5071229;28;20047;-61
2023/07/20 08:09:55;;;;;;;8.47;2.63;;;;;;;21.89;76.44;99990.28;5061328;28;20131;-64
2023/07/20 08:12:25;;;;;;;9.37;2.43;;;;;;;21.73;76.46;99989.59;5070672;28;20036;-64
2023/07/20 08:14:56;;;;;;;6.17;2.50;;;;;;;21.49;77.70;99995.59;5060048;28;20051;-60
2023/07/20 08:17:27;;;;;;;8.03;2.30;;;;;;;21.31;78.30;100004.72;5071230;28;20455;-64
2023/07/20 08:19:58;;;;;;;9.43;2.30;;;;;;;21.11;79.28;99995.38;5058998;28;20051;-66
2023/07/20 08:22:30;;;;;;;15.00;2.93;;;;;;;21.00;79.96;99997.91;5069920;28;20625;-62
2023/07/20 08:25:00;;;;;;;19.90;3.03;;;;;;;20.98;80.19;100003.28;5061940;28;20532;-66
2023/07/20 08:27:31;;;;;;;10.30;1.97;;;;;;;20.75;80.91;99974.72;5069953;28;20043;-64
2023/07/20 08:30:02;;;;;;;7.13;2.00;;;;;;;20.98;80.67;100008.59;5059776;28;20065;-62
2023/07/20 08:32:33;;;;;;;2.40;1.50;;;;;;;20.86;80.32;100014.69;5070600;28;20059;-62
2023/07/20 08:35:04;;;;;;;6.47;1.87;;;;;;;20.54;80.90;99983.00;5059870;28;20553;-63
2023/07/20 08:37:36;;;;;;;11.73;2.90;;;;;;;20.65;81.52;100004.47;5071074;28;20056;-61
2023/07/20 08:40:08;;;;;;;7.87;1.70;;;;;;;20.73;81.92;100027.03;5060960;28;20513;-62
2023/07/20 08:42:41;;;;;;;6.93;2.60;;;;;;;20.62;81.61;100007.31;5071365;28;20051;-59
2023/07/20 08:45:14;;;;;;;7.63;2.27;;;;;;;20.74;81.13;100028.75;5057882;28;20525;-62
2023/07/20 08:47:47;;;;;;;10.77;2.47;;;;;;;20.52;81.54;100011.47;5060243;28;20762;-65
2023/07/20 08:50:18;;;;;;;5.00;1.90;;;;;;;20.57;81.77;100025.34;5068782;28;20074;-60
2023/07/20 08:52:54;;;;;;;4.37;2.10;;;;;;;20.47;81.58;100034.78;5060223;28;20079;-65
2023/07/20 08:55:25;;;;;;;9.73;2.20;;;;;;;20.32;82.13;100035.69;5070417;28;20330;-65
2023/07/20 08:57:57;;;;;;;6.10;2.40;;;;;;;20.19;82.63;100030.28;5059142;28;20833;-59
2023/07/20 09:00:29;;;;;;;7.03;2.53;;;;;;;20.15;83.63;100040.22;5068975;28;20290;-66
2023/07/20 09:03:05;;;;;;;8.63;2.73;;;;;;;20.14;83.50;100043.81;5059233;28;20270;-61
2023/07/20 09:05:40;;;;;;;9.07;2.20;;;;;;;19.96;83.54;100055.53;5069720;28;20279;-65
2023/07/20 09:08:15;;;;;;;6.83;2.60;;;;;;;19.74;84.90;100062.06;5060274;28;20305;-66
2023/07/20 09:11:05;;;;;;;6.50;2.30;;;;;;;19.63;85.62;100059.16;5059398;28;20306;-66
2023/07/20 09:14:04;;;;;;;7.68;2.75;;;;;;;19.48;86.68;100066.19;5058800;28;20758;-63
2023/07/20 09:16:51;;;;;;;7.60;2.43;;;;;;;19.32;87.39;100055.59;5069914;28;20384;-63
2023/07/20 09:19:25;;;;;;;8.60;2.60;;;;;;;19.24;88.29;100057.78;5069975;28;20305;-61
2023/07/20 09:22:05;;;;;;;4.53;2.57;;;;;;;19.15;89.07;100055.69;5059331;28;20282;-61
2023/07/20 09:24:41;;;;;;;6.93;2.60;;;;;;;19.07;89.80;100068.47;5068652;28;20752;-65
2023/07/20 09:27:17;;;;;;;5.67;2.70;;;;;;;19.03;90.51;100064.28;5060612;28;20716;-62
2023/07/20 09:29:58;;;;;;;14.27;3.08;;;;;;;18.32;91.10;99970.13;5058684;28;20278;-63
2023/07/20 09:32:50;;;;;;;7.93;3.07;;;;;;;18.92;91.54;100065.72;5068276;28;20086;-64
2023/07/20 09:35:26;;;;;;;7.47;3.75;;;;;;;18.91;91.60;100069.31;5069911;28;20266;-65
2023/07/20 09:38:08;;;;;;;10.10;3.57;;;;;;;18.76;91.89;100067.47;5059448;28;20055;-66
2023/07/20 09:40:44;;;;;;;7.90;3.93;;;;;;;18.68;91.89;100088.19;5059440;28;20282;-66
2023/07/20 09:46:13;;;;;;;9.90;4.17;;;;;;;18.52;93.48;100081.06;5055998;28;20300;-65
2023/07/20 09:49:04;;;;;;;11.40;3.93;;;;;;;18.48;93.75;100079.50;5057193;28;20274;-65
2023/07/20 09:51:39;;;;;;;5.83;4.33;;;;;;;18.39;94.20;100079.97;5069483;28;20343;-63
2023/07/20 09:54:13;;;;;;;14.27;4.13;;;;;;;18.32;95.06;100073.28;5059364;28;20296;-62
2023/07/20 09:57:41;;;;;;;11.63;4.33;;;;;;;18.35;95.54;100083.72;5057333;28;20274;-62
2023/07/20 10:00:38;;;;;;;14.07;4.00;;;;;;;18.30;95.69;100083.09;4995277;28;20339;-63
2023/07/20 10:03:39;;;;;;;15.00;4.80;;;;;;;18.04;96.09;100068.53;5069232;28;20286;-63
2023/07/20 10:07:01;;;;;;;6.97;3.63;;;;;;;18.19;96.94;100101.28;5066019;28;20278;-64
2023/07/20 10:09:53;;;;;;;12.07;4.03;;;;;;;18.20;96.63;100095.94;5070430;28;20285;-65
2023/07/20 10:12:37;;;;;;;11.80;4.10;;;;;;;18.07;96.75;100095.69;5072101;28;20270;-65
2023/07/20 10:15:17;;;;;;;10.30;3.97;;;;;;;18.04;97.54;100106.41;5063363;28;20375;-64
2023/07/20 10:18:10;;;;;;;9.75;4.68;;;;;;;18.00;97.93;100094.28;5061644;28;20384;-62
2023/07/20 10:20:43;;;;;;;8.97;5.33;;;;;;;17.73;98.28;100054.19;5068995;28;20779;-65
2023/07/20 10:23:18;;;;;;;12.07;5.33;;;;;;;18.05;98.63;100108.13;5073586;28;20613;-64
2023/07/20 10:26:04;;;;;;;10.23;5.27;;;;;;;18.07;98.22;100103.63;5062450;28;20286;-66
2023/07/20 10:28:36;;;;;;;9.70;5.53;;;;;;;18.06;98.13;100117.75;5073317;28;20329;-64
2023/07/20 10:31:09;;;;;;;10.17;5.30;;;;;;;18.00;98.37;100110.16;5064335;28;20291;-61
2023/07/20 10:33:43;;;;;;;10.90;6.00;;;;;;;17.97;98.49;100110.31;5069759;28;20288;-65
2023/07/20 10:36:15;;;;;;;8.40;5.67;;;;;;;17.93;98.55;100107.88;5071428;28;20297;-66
2023/07/20 10:38:56;;;;;;;14.77;6.00;;;;;;;17.85;99.15;100110.91;5062759;28;20314;-62
2023/07/20 10:41:31;;;;;;;10.90;6.47;;;;;;;17.81;99.54;100104.06;5072461;28;20638;-63
2023/07/20 10:44:06;;;;;;;10.70;6.53;;;;;;;17.81;99.86;100101.41;5062852;28;20293;-65
2023/07/20 10:46:46;;;;;;;13.47;7.10;;;;;;;17.82;99.85;100116.31;5072539;28;20666;-67
2023/07/20 10:49:26;;;;;;;14.97;8.07;;;;;;;17.76;99.93;100120.09;5062505;28;20336;-66
2023/07/20 10:52:03;;;;;;;14.00;7.77;;;;;;;17.73;100.00;100128.19;5062115;28;20373;-66
2023/07/20 10:54:55;;;;;;;17.00;8.33;;;;;;;17.64;100.00;100124.16;5073361;28;20290;-63
2023/07/20 10:57:33;;;;;;;14.97;9.00;;;;;;;17.59;100.00;100142.03;5067228;28;20286;-65
2023/07/20 11:00:15;;;;;;;21.20;9.33;;;;;;;17.57;100.00;100153.59;5060913;28;20300;-64
2023/07/20 11:02:48;;;;;;;15.83;9.63;;;;;;;17.51;100.00;100149.47;5061778;28;20290;-67
2023/07/20 11:05:44;;;;;;;15.27;11.27;;;;;;;17.44;100.00;100148.03;5072574;28;20382;-67
2023/07/20 11:08:37;;;;;;;19.10;11.23;;;;;;;17.35;100.00;100154.63;5061964;28;20274;-66
2023/07/20 11:11:26;;;;;;;14.23;8.63;;;;;;;17.20;100.00;100155.31;5061323;28;21341;-61
2023/07/20 11:13:59;;;;;;;13.47;8.37;;;;;;;16.99;100.00;100120.19;5060076;28;20393;-61
2023/07/20 11:16:43;;;;;;;14.37;8.27;;;;;;;17.18;100.00;100158.03;5071648;28;20592;-61
2023/07/20 11:19:20;;;;;;;16.20;8.23;;;;;;;17.20;100.00;100172.03;5062759;28;20353;-67
2023/07/20 11:21:58;;;;;;;15.27;9.00;;;;;;;17.02;100.00;100157.00;5061675;28;20293;-66
2023/07/20 11:24:35;;;;;;;17.88;8.40;;;;;;;17.19;100.00;100178.22;5071008;28;20281;-64
2023/07/20 11:27:08;;;;;;;17.90;9.57;;;;;;;17.10;100.00;100157.53;5061089;28;20071;-66
2023/07/20 11:29:41;;;;;;;16.67;8.00;;;;;;;17.16;100.00;100173.06;5071853;28;21034;-65
2023/07/20 11:32:24;;;;;;;14.77;8.23;;;;;;;17.11;100.00;100185.63;5061312;28;20286;-63
2023/07/20 11:34:56;;;;;;;14.10;8.00;;;;;;;17.09;100.00;100184.81;5061612;28;20792;-62
2023/07/20 11:37:30;;;;;;;12.20;8.03;;;;;;;17.07;100.00;100186.69;5070803;28;20290;-66
2023/07/20 11:40:02;;;;;;;15.57;7.97;;;;;;;16.99;100.00;100163.25;5060739;28;20397;-62
2023/07/20 11:42:35;;;;;;;13.07;7.53;;;;;;;17.06;100.00;100169.13;5070971;28;20286;-65
2023/07/20 11:45:13;;;;;;;11.73;7.50;;;;;;;17.07;100.00;100164.69;5061389;28;20339;-65
2023/07/20 11:47:45;;;;;;;11.73;7.03;;;;;;;17.01;100.00;100171.97;5060367;28;20369;-61
2023/07/20 11:50:18;;;;;;;11.27;6.77;;;;;;;17.00;100.00;100170.28;5071705;28;20331;-63
2023/07/20 11:52:52;;;;;;;11.87;6.50;;;;;;;17.01;100.00;100171.13;5061024;28;20296;-62
2023/07/20 11:55:23;;;;;;;12.50;6.40;;;;;;;17.00;100.00;100177.34;5071258;28;20301;-63
2023/07/20 11:58:05;;;;;;;12.80;7.07;;;;;;;16.97;100.00;100169.53;5060884;28;20289;-64